Oscar Dyson — WTEP — position and weather

sailwx.info

Track history (hours):
 
Tides and Currents Weather Stations Pressure Air Temp Water Temp Dewpoint Dewpoint Depression Visibility Wind Speed Wind Dir Waves Ship Positions

Oceanographic research ship Oscar Dyson (USA)

Ship's website: http://www.moc.noaa.gov/od/

Detailed information on ship capabilities available from University of Delaware's Ocean Information Center and ARCUS's ALIAS (Arctic Logistics Information and Support) project.

Last reported at 2020-Mar-22 12:00 UTC. Time now 2020-Jul-08 12:00 UTC.
Position N 57°00' W 147°12'.
Warning: this ship's position is months out of date.

Type: Other ship. MMSI: 368926382.

Wind from 330 at 30 knots

Date/timePositionNaut miles runAvg speedWind from/ knotsBaromVisibWave heightAir tempDewpointWater temp
2020-Mar-22 12:00N 57°00' W 147°12'1313.1 330 / 30
2020-Mar-22 11:00N 57°00' W 147°36'1111.5 330 / 291019.4 4.9 0.5 4.3
2020-Mar-22 10:00N 57°06' W 147°54'1313.0 320 / 341019.1 4.8-0.0 4.6
2020-Mar-22 09:00N 57°06' W 148°18'   320 / 321018.7 4.8-0.2 4.6
2020-Mar-16 17:00N 57°48' W 152°24'6 6.0 060 / 11031.6 1.4-1.2 2.7
2020-Mar-16 16:00N 57°42' W 152°24'0 0.0 220 / 21031.6 2.5-0.2 3.4
2020-Mar-16 15:00N 57°42' W 152°24'0 0.0 300 / 61031.7 2.6-1.5 3.4
2020-Mar-16 14:00N 57°42' W 152°24'0 0.0 300 / 41032.0 2.0-1.0 3.2
2020-Mar-16 13:00N 57°42' W 152°24'3 3.2 330 / 31032.1 2.6-1.0 3.3
2020-Mar-16 12:00N 57°42' W 152°18'0 0.0 210 / 41032.2 4.0 1.0 3.6
2020-Mar-16 11:00N 57°42' W 152°18'3 3.2 220 / 51032.0 4.0 0.9 3.5
2020-Mar-16 10:00N 57°42' W 152°24'6 6.0 210 / 91032.4 3.6 0.7 3.3
2020-Mar-16 09:00N 57°36' W 152°24'0 0.0 200 / 101032.9 3.6 0.5 3.3
2020-Mar-16 08:00N 57°36' W 152°24'0 0.0 210 / 81033.2 3.2 0.3 3.3
2020-Mar-16 07:00N 57°36' W 152°24'0 0.0 210 / 121033.2 3.2 0.5 3.4
2020-Mar-16 06:00N 57°36' W 152°24'0 0.0 210 / 101032.9 3.2 0.1 3.3
2020-Mar-16 05:00N 57°36' W 152°24'0 0.0 190 / 121033.2 3.4-0.4 3.3
2020-Mar-16 04:00N 57°36' W 152°24'1111.3 190 / 111033.2 3.3-0.7 3.3
2020-Mar-16 03:00N 57°42' W 152°06'1212.4 190 / 191033.2 3.6 0.2 4.0
2020-Mar-16 02:00N 57°30' W 152°00'1212.4 210 / 131034.1 3.9 0.2 3.5
2020-Mar-16 01:00N 57°18' W 152°06'7 6.8 200 / 131034.6 4.8-0.5 3.4
2020-Mar-16 00:00N 57°12' W 152°12'1111.5 200 / 141035.3 4.2-0.6 3.5
2020-Mar-15 23:00N 57°06' W 152°30'1413.7 190 / 121035.7 4.1-0.7 3.8
2020-Mar-15 22:00N 56°54' W 152°42'7 6.6 180 / 101036.2 3.6-0.8 3.4
2020-Mar-15 21:00N 56°54' W 152°54'9 8.9 170 / 81036.1 3.6-1.3 3.5
2020-Mar-15 20:00N 56°48' W 153°06'1211.6 170 / 81036.6 3.4-1.3 3.3
2020-Mar-15 19:00N 56°42' W 153°24'1615.6 160 / 81036.5 3.4-1.2 3.3
2020-Mar-15 18:00N 56°30' W 153°42'1211.6 150 / 101036.2 3.2-1.3 2.5
2020-Mar-15 17:00N 56°24' W 154°00'1211.6 160 / 141035.7 3.0-1.4 2.5
2020-Mar-15 16:00N 56°18' W 154°18'1413.7 160 / 151035.5 2.8-0.4 3.0
2020-Mar-15 15:00N 56°06' W 154°30'1211.7 160 / 171035.5 2.4-0.6 3.1
2020-Mar-15 14:00N 56°00' W 154°48'1211.7 160 / 171035.4 2.6-0.7 2.8
2020-Mar-15 13:00N 55°54' W 155°06'1211.8 150 / 191035.4 3.0-1.6 3.1
2020-Mar-15 12:00N 55°48' W 155°24'9 9.0 150 / 181035.6 3.4-1.6 2.6
2020-Mar-15 11:00N 55°42' W 155°36'1413.5 150 / 171035.4 3.4-1.8 3.1
2020-Mar-15 10:00N 55°42' W 156°00'1211.8 150 / 161036.0 3.4-1.6 3.0
2020-Mar-15 09:00N 55°48' W 156°18'1010.1 150 / 161036.0 3.5-2.2 3.1
2020-Mar-15 08:00N 55°48' W 156°36'1211.8 140 / 131036.0 3.6-1.1 3.1
2020-Mar-15 07:00N 55°54' W 156°54'1212.5 130 / 121036.1 3.5-0.7 3.1
2020-Mar-15 06:00N 56°06' W 156°48'1010.0 130 / 151036.4 3.3-1.7 2.8
2020-Mar-15 05:00N 56°06' W 156°30'1514.7 140 / 141037.1 3.5-1.6 3.1
2020-Mar-15 04:00N 56°00' W 156°06'7 6.7 140 / 171037.2 3.6-2.3 3.1
2020-Mar-15 03:00N 56°00' W 155°54'1212.5 130 / 131037.4 3.2-1.2 2.7
2020-Mar-15 02:00N 56°12' W 155°48'1211.7 120 / 161037.9 3.3-1.2 3.2
2020-Mar-15 01:00N 56°18' W 156°06'7 6.7 130 / 91038.5 3.4-1.2 3.1
2020-Mar-15 00:00N 56°18' W 156°18'0 0.0 120 / 121039.2 3.4-2.6 3.1
2020-Mar-14 23:00N 56°18' W 156°18'0 0.0 140 / 121039.7 3.4-2.1 3.1
2020-Mar-14 22:00N 56°18' W 156°18'0 0.0 140 / 131040.0 3.4-2.1 3.1
2020-Mar-14 21:00N 56°18' W 156°18'1211.6 140 / 121040.3 3.2-1.9 3.0
2020-Mar-14 20:00N 56°24' W 156°36'9 8.9 150 / 141040.1 3.3-1.7 3.3
2020-Mar-14 19:00N 56°30' W 156°48'10 9.9 130 / 131040.0 3.2-1.0 3.1
2020-Mar-14 18:00N 56°30' W 156°30'1514.6 140 / 151040.2 3.1-0.9 3.1
2020-Mar-14 17:00N 56°24' W 156°06'1211.6 150 / 121040.3 2.8-0.9 3.1
2020-Mar-14 16:00N 56°18' W 155°48'9 9.0 150 / 91040.4 2.6-0.8 3.0
2020-Mar-14 15:00N 56°24' W 155°36'1514.6 160 / 81040.6 2.9-1.4 3.1
2020-Mar-14 14:00N 56°30' W 156°00'1211.6 150 / 101040.7 3.4-2.0 3.4
2020-Mar-14 13:00N 56°36' W 156°18'1414.5 160 / 111041.0 3.4-2.8 3.1
2020-Mar-14 12:00N 56°42' W 156°42'7 6.6 150 / 91041.3 3.0-1.9 3.0
2020-Mar-14 11:00N 56°42' W 156°30'1313.2 150 / 141042.0 3.0-1.1 3.2
2020-Mar-14 10:00N 56°42' W 156°06'9 8.9 150 / 121042.5 3.2-1.4 3.1
2020-Mar-14 09:00N 56°36' W 155°54'0 0.0 140 / 141042.8 3.3-2.8 3.1
2020-Mar-14 08:00N 56°36' W 155°54'7 6.8 140 / 131043.0 3.3-3.0 3.0
2020-Mar-14 07:00N 56°42' W 156°00'1414.5 130 / 121043.2 2.9-1.3 3.0
2020-Mar-14 06:00N 56°36' W 155°36'10 9.9 120 / 131043.3 2.5-1.4 3.3
2020-Mar-14 05:00N 56°36' W 155°18'9 8.9 100 / 131043.1 2.3-1.8 2.2
2020-Mar-14 04:00N 56°42' W 155°30'1414.5 120 / 121042.9 2.7-3.0 3.3
2020-Mar-14 03:00N 56°48' W 155°54'10 9.9 140 / 131043.0 2.8-4.6 3.1
2020-Mar-14 02:00N 56°48' W 156°12'1211.5 150 / 121043.4 2.9-4.5 3.0
2020-Mar-14 01:00N 56°54' W 156°30'1211.5 140 / 151044.0 2.9-3.1 3.0
2020-Mar-14 00:00N 57°00' W 156°12'1211.5 140 / 151044.5 3.8-3.1 3.1
2020-Mar-13 23:00N 56°54' W 155°54'0 0.0 130 / 161045.0 3.0-3.9 3.1
2020-Mar-13 22:00N 56°54' W 155°54'3 3.3 120 / 151045.3 3.0-3.4 3.1
2020-Mar-13 21:00N 56°54' W 156°00'1414.4 150 / 161045.6 3.0-3.7 3.1
2020-Mar-13 20:00N 56°48' W 155°36'10 9.9 140 / 161046.0 2.9-3.0 3.1
2020-Mar-13 19:00N 56°48' W 155°18'0 0.0 120 / 101046.3 2.0-2.5 3.1
2020-Mar-13 18:00N 56°48' W 155°18'0 0.0 140 / 141045.7 1.9-3.1 3.3
2020-Mar-13 17:00N 56°48' W 155°18'9 8.9 120 / 161045.4 2.0-4.0 3.1
2020-Mar-13 16:00N 56°54' W 155°06'10 9.8 110 / 171044.7 1.7-2.6 3.1
2020-Mar-13 15:00N 56°54' W 155°24'1414.4 110 / 161045.1 1.7-3.4 3.0
2020-Mar-13 14:00N 57°00' W 155°48'1111.5 110 / 161045.0 1.6-4.5 3.1
2020-Mar-13 13:00N 57°06' W 156°06'6 6.0 120 / 121045.5 1.8-5.0 3.0
2020-Mar-13 12:00N 57°12' W 156°06'1111.5 140 / 131046.2 1.9-5.5 2.8
2020-Mar-13 11:00N 57°06' W 155°48'3 3.3 130 / 121047.0 1.9-5.6 3.1
2020-Mar-13 10:00N 57°06' W 155°42'6 6.0 120 / 181047.0 1.8-6.1 3.1
2020-Mar-13 09:00N 57°12' W 155°42'7 6.8 160 / 131046.9 1.6-7.2 3.1
2020-Mar-13 08:00N 57°06' W 155°36'1111.5 150 / 121046.4 1.5-7.2 3.1
2020-Mar-13 07:00N 57°00' W 155°18'1313.1 160 / 111046.2 1.5-8.2 3.2
2020-Mar-13 06:00N 57°00' W 154°54'9 8.9 140 / 131045.9 1.5-8.4 3.5
2020-Mar-13 05:00N 57°06' W 155°06'1111.5 180 / 141045.0 1.9-9.6 3.3
2020-Mar-13 04:00N 57°12' W 155°24'3 3.3 050 / 201044.2 0.8-7.3 3.0
2020-Mar-13 03:00N 57°12' W 155°30'3 3.3 060 / 221043.7 0.9-7.2 3.0
2020-Mar-13 02:00N 57°12' W 155°24'7 6.5 050 / 251043.7 1.7-5.7 3.1
2020-Mar-13 01:00N 57°12' W 155°36'1111.4 040 / 261043.8 0.9-5.5 3.2
2020-Mar-13 00:00N 57°18' W 155°54'6 6.0 050 / 201044.7 0.6-5.7 2.8
2020-Mar-12 23:00N 57°24' W 155°54'1312.9 060 / 141045.2 2.5-5.2 2.8
2020-Mar-12 22:00N 57°24' W 155°30'1111.4 060 / 181045.2 1.2-6.5 2.8
2020-Mar-12 21:00N 57°18' W 155°12'1111.4 040 / 191044.9 0.8-8.1 3.0
2020-Mar-12 20:00N 57°12' W 154°54'1212.4 020 / 121044.4 0.1-13.3 3.1
2020-Mar-12 19:00N 57°24' W 155°00'10 9.7 040 / 131043.9 -0.0-9.1 2.8
2020-Mar-12 18:00N 57°24' W 155°18'3 3.2 350 / 131043.5 -2.4-9.4 3.0
2020-Mar-12 17:00N 57°24' W 155°12'7 3.4 360 / 131042.9 -2.0-9.5 2.8
2020-Mar-12 15:00N 57°30' W 155°18'10 9.7 350 / 141042.1 -2.2-10.5 2.7
2020-Mar-12 14:00N 57°30' W 155°36'1515.4 330 / 241040.6 -4.3-11.5 2.8
2020-Mar-12 13:00N 57°42' W 155°18'1111.3 300 / 171040.9 -4.1-11.3 2.8
2020-Mar-12 12:00N 57°48' W 155°00'   100 / 11040.7 -0.9-14.1 1.3
Track history (hours):
 
Tides and Currents Weather Stations Pressure Air Temp Water Temp Dewpoint Dewpoint Depression Visibility Wind Speed Wind Dir Waves Ship Positions

Oceanographic research ship Oscar Dyson (USA)

Ship's website: http://www.moc.noaa.gov/od/

Detailed information on ship capabilities available from University of Delaware's Ocean Information Center and ARCUS's ALIAS (Arctic Logistics Information and Support) project.

Last reported at 2020-Mar-22 12:00 UTC. Time now 2020-Jul-08 12:00 UTC.
Position N 57°00' W 147°12'.
Warning: this ship's position is months out of date.

Type: Other ship. MMSI: 368926382.

Wind from 330 at 30 knots

Date/timePositionNaut miles runAvg speedWind from/ knotsBaromVisibWave heightAir tempDewpointWater temp
2020-Mar-22 12:00N 57°00' W 147°12'1313.1 330 / 30
2020-Mar-22 11:00N 57°00' W 147°36'1111.5 330 / 291019.4 4.9 0.5 4.3
2020-Mar-22 10:00N 57°06' W 147°54'1313.0 320 / 341019.1 4.8-0.0 4.6
2020-Mar-22 09:00N 57°06' W 148°18'   320 / 321018.7 4.8-0.2 4.6
2020-Mar-16 17:00N 57°48' W 152°24'6 6.0 060 / 11031.6 1.4-1.2 2.7
2020-Mar-16 16:00N 57°42' W 152°24'0 0.0 220 / 21031.6 2.5-0.2 3.4
2020-Mar-16 15:00N 57°42' W 152°24'0 0.0 300 / 61031.7 2.6-1.5 3.4
2020-Mar-16 14:00N 57°42' W 152°24'0 0.0 300 / 41032.0 2.0-1.0 3.2
2020-Mar-16 13:00N 57°42' W 152°24'3 3.2 330 / 31032.1 2.6-1.0 3.3
2020-Mar-16 12:00N 57°42' W 152°18'0 0.0 210 / 41032.2 4.0 1.0 3.6
2020-Mar-16 11:00N 57°42' W 152°18'3 3.2 220 / 51032.0 4.0 0.9 3.5
2020-Mar-16 10:00N 57°42' W 152°24'6 6.0 210 / 91032.4 3.6 0.7 3.3
2020-Mar-16 09:00N 57°36' W 152°24'0 0.0 200 / 101032.9 3.6 0.5 3.3
2020-Mar-16 08:00N 57°36' W 152°24'0 0.0 210 / 81033.2 3.2 0.3 3.3
2020-Mar-16 07:00N 57°36' W 152°24'0 0.0 210 / 121033.2 3.2 0.5 3.4
2020-Mar-16 06:00N 57°36' W 152°24'0 0.0 210 / 101032.9 3.2 0.1 3.3
2020-Mar-16 05:00N 57°36' W 152°24'0 0.0 190 / 121033.2 3.4-0.4 3.3
2020-Mar-16 04:00N 57°36' W 152°24'1111.3 190 / 111033.2 3.3-0.7 3.3
2020-Mar-16 03:00N 57°42' W 152°06'1212.4 190 / 191033.2 3.6 0.2 4.0
2020-Mar-16 02:00N 57°30' W 152°00'1212.4 210 / 131034.1 3.9 0.2 3.5
2020-Mar-16 01:00N 57°18' W 152°06'7 6.8 200 / 131034.6 4.8-0.5 3.4
2020-Mar-16 00:00N 57°12' W 152°12'1111.5 200 / 141035.3 4.2-0.6 3.5
2020-Mar-15 23:00N 57°06' W 152°30'1413.7 190 / 121035.7 4.1-0.7 3.8
2020-Mar-15 22:00N 56°54' W 152°42'7 6.6 180 / 101036.2 3.6-0.8 3.4
2020-Mar-15 21:00N 56°54' W 152°54'9 8.9 170 / 81036.1 3.6-1.3 3.5
2020-Mar-15 20:00N 56°48' W 153°06'1211.6 170 / 81036.6 3.4-1.3 3.3
2020-Mar-15 19:00N 56°42' W 153°24'1615.6 160 / 81036.5 3.4-1.2 3.3
2020-Mar-15 18:00N 56°30' W 153°42'1211.6 150 / 101036.2 3.2-1.3 2.5
2020-Mar-15 17:00N 56°24' W 154°00'1211.6 160 / 141035.7 3.0-1.4 2.5
2020-Mar-15 16:00N 56°18' W 154°18'1413.7 160 / 151035.5 2.8-0.4 3.0
2020-Mar-15 15:00N 56°06' W 154°30'1211.7 160 / 171035.5 2.4-0.6 3.1
2020-Mar-15 14:00N 56°00' W 154°48'1211.7 160 / 171035.4 2.6-0.7 2.8
2020-Mar-15 13:00N 55°54' W 155°06'1211.8 150 / 191035.4 3.0-1.6 3.1
2020-Mar-15 12:00N 55°48' W 155°24'9 9.0 150 / 181035.6 3.4-1.6 2.6
2020-Mar-15 11:00N 55°42' W 155°36'1413.5 150 / 171035.4 3.4-1.8 3.1
2020-Mar-15 10:00N 55°42' W 156°00'1211.8 150 / 161036.0 3.4-1.6 3.0
2020-Mar-15 09:00N 55°48' W 156°18'1010.1 150 / 161036.0 3.5-2.2 3.1
2020-Mar-15 08:00N 55°48' W 156°36'1211.8 140 / 131036.0 3.6-1.1 3.1
2020-Mar-15 07:00N 55°54' W 156°54'1212.5 130 / 121036.1 3.5-0.7 3.1
2020-Mar-15 06:00N 56°06' W 156°48'1010.0 130 / 151036.4 3.3-1.7 2.8
2020-Mar-15 05:00N 56°06' W 156°30'1514.7 140 / 141037.1 3.5-1.6 3.1
2020-Mar-15 04:00N 56°00' W 156°06'7 6.7 140 / 171037.2 3.6-2.3 3.1
2020-Mar-15 03:00N 56°00' W 155°54'1212.5 130 / 131037.4 3.2-1.2 2.7
2020-Mar-15 02:00N 56°12' W 155°48'1211.7 120 / 161037.9 3.3-1.2 3.2
2020-Mar-15 01:00N 56°18' W 156°06'7 6.7 130 / 91038.5 3.4-1.2 3.1
2020-Mar-15 00:00N 56°18' W 156°18'0 0.0 120 / 121039.2 3.4-2.6 3.1
2020-Mar-14 23:00N 56°18' W 156°18'0 0.0 140 / 121039.7 3.4-2.1 3.1
2020-Mar-14 22:00N 56°18' W 156°18'0 0.0 140 / 131040.0 3.4-2.1 3.1
2020-Mar-14 21:00N 56°18' W 156°18'1211.6 140 / 121040.3 3.2-1.9 3.0
2020-Mar-14 20:00N 56°24' W 156°36'9 8.9 150 / 141040.1 3.3-1.7 3.3
2020-Mar-14 19:00N 56°30' W 156°48'10 9.9 130 / 131040.0 3.2-1.0 3.1
2020-Mar-14 18:00N 56°30' W 156°30'1514.6 140 / 151040.2 3.1-0.9 3.1
2020-Mar-14 17:00N 56°24' W 156°06'1211.6 150 / 121040.3 2.8-0.9 3.1
2020-Mar-14 16:00N 56°18' W 155°48'9 9.0 150 / 91040.4 2.6-0.8 3.0
2020-Mar-14 15:00N 56°24' W 155°36'1514.6 160 / 81040.6 2.9-1.4 3.1
2020-Mar-14 14:00N 56°30' W 156°00'1211.6 150 / 101040.7 3.4-2.0 3.4
2020-Mar-14 13:00N 56°36' W 156°18'1414.5 160 / 111041.0 3.4-2.8 3.1
2020-Mar-14 12:00N 56°42' W 156°42'7 6.6 150 / 91041.3 3.0-1.9 3.0
2020-Mar-14 11:00N 56°42' W 156°30'1313.2 150 / 141042.0 3.0-1.1 3.2
2020-Mar-14 10:00N 56°42' W 156°06'9 8.9 150 / 121042.5 3.2-1.4 3.1
2020-Mar-14 09:00N 56°36' W 155°54'0 0.0 140 / 141042.8 3.3-2.8 3.1
2020-Mar-14 08:00N 56°36' W 155°54'7 6.8 140 / 131043.0 3.3-3.0 3.0
2020-Mar-14 07:00N 56°42' W 156°00'1414.5 130 / 121043.2 2.9-1.3 3.0
2020-Mar-14 06:00N 56°36' W 155°36'10 9.9 120 / 131043.3 2.5-1.4 3.3
2020-Mar-14 05:00N 56°36' W 155°18'9 8.9 100 / 131043.1 2.3-1.8 2.2
2020-Mar-14 04:00N 56°42' W 155°30'1414.5 120 / 121042.9 2.7-3.0 3.3
2020-Mar-14 03:00N 56°48' W 155°54'10 9.9 140 / 131043.0 2.8-4.6 3.1
2020-Mar-14 02:00N 56°48' W 156°12'1211.5 150 / 121043.4 2.9-4.5 3.0
2020-Mar-14 01:00N 56°54' W 156°30'1211.5 140 / 151044.0 2.9-3.1 3.0
2020-Mar-14 00:00N 57°00' W 156°12'1211.5 140 / 151044.5 3.8-3.1 3.1
2020-Mar-13 23:00N 56°54' W 155°54'0 0.0 130 / 161045.0 3.0-3.9 3.1
2020-Mar-13 22:00N 56°54' W 155°54'3 3.3 120 / 151045.3 3.0-3.4 3.1
2020-Mar-13 21:00N 56°54' W 156°00'1414.4 150 / 161045.6 3.0-3.7 3.1
2020-Mar-13 20:00N 56°48' W 155°36'10 9.9 140 / 161046.0 2.9-3.0 3.1
2020-Mar-13 19:00N 56°48' W 155°18'0 0.0 120 / 101046.3 2.0-2.5 3.1
2020-Mar-13 18:00N 56°48' W 155°18'0 0.0 140 / 141045.7 1.9-3.1 3.3
2020-Mar-13 17:00N 56°48' W 155°18'9 8.9 120 / 161045.4 2.0-4.0 3.1
2020-Mar-13 16:00N 56°54' W 155°06'10 9.8 110 / 171044.7 1.7-2.6 3.1
2020-Mar-13 15:00N 56°54' W 155°24'1414.4 110 / 161045.1 1.7-3.4 3.0
2020-Mar-13 14:00N 57°00' W 155°48'1111.5 110 / 161045.0 1.6-4.5 3.1
2020-Mar-13 13:00N 57°06' W 156°06'6 6.0 120 / 121045.5 1.8-5.0 3.0
2020-Mar-13 12:00N 57°12' W 156°06'1111.5 140 / 131046.2 1.9-5.5 2.8
2020-Mar-13 11:00N 57°06' W 155°48'3 3.3 130 / 121047.0 1.9-5.6 3.1
2020-Mar-13 10:00N 57°06' W 155°42'6 6.0 120 / 181047.0 1.8-6.1 3.1
2020-Mar-13 09:00N 57°12' W 155°42'7 6.8 160 / 131046.9 1.6-7.2 3.1
2020-Mar-13 08:00N 57°06' W 155°36'1111.5 150 / 121046.4 1.5-7.2 3.1
2020-Mar-13 07:00N 57°00' W 155°18'1313.1 160 / 111046.2 1.5-8.2 3.2
2020-Mar-13 06:00N 57°00' W 154°54'9 8.9 140 / 131045.9 1.5-8.4 3.5
2020-Mar-13 05:00N 57°06' W 155°06'1111.5 180 / 141045.0 1.9-9.6 3.3
2020-Mar-13 04:00N 57°12' W 155°24'3 3.3 050 / 201044.2 0.8-7.3 3.0
2020-Mar-13 03:00N 57°12' W 155°30'3 3.3 060 / 221043.7 0.9-7.2 3.0
2020-Mar-13 02:00N 57°12' W 155°24'7 6.5 050 / 251043.7 1.7-5.7 3.1
2020-Mar-13 01:00N 57°12' W 155°36'1111.4 040 / 261043.8 0.9-5.5 3.2
2020-Mar-13 00:00N 57°18' W 155°54'6 6.0 050 / 201044.7 0.6-5.7 2.8
2020-Mar-12 23:00N 57°24' W 155°54'1312.9 060 / 141045.2 2.5-5.2 2.8
2020-Mar-12 22:00N 57°24' W 155°30'1111.4 060 / 181045.2 1.2-6.5 2.8
2020-Mar-12 21:00N 57°18' W 155°12'1111.4 040 / 191044.9 0.8-8.1 3.0
2020-Mar-12 20:00N 57°12' W 154°54'1212.4 020 / 121044.4 0.1-13.3 3.1
2020-Mar-12 19:00N 57°24' W 155°00'10 9.7 040 / 131043.9 -0.0-9.1 2.8
2020-Mar-12 18:00N 57°24' W 155°18'3 3.2 350 / 131043.5 -2.4-9.4 3.0
2020-Mar-12 17:00N 57°24' W 155°12'7 3.4 360 / 131042.9 -2.0-9.5 2.8
2020-Mar-12 15:00N 57°30' W 155°18'10 9.7 350 / 141042.1 -2.2-10.5 2.7
2020-Mar-12 14:00N 57°30' W 155°36'1515.4 330 / 241040.6 -4.3-11.5 2.8
2020-Mar-12 13:00N 57°42' W 155°18'1111.3 300 / 171040.9 -4.1-11.3 2.8
2020-Mar-12 12:00N 57°48' W 155°00'   100 / 11040.7 -0.9-14.1 1.3

Dump ship's entire track history